createdAt,value
2023-04-09T00:00:50.721Z,0.00
2023-04-09T00:01:50.772Z,0.00
2023-04-09T00:02:50.825Z,0.00
2023-04-09T00:03:50.759Z,0.00
2023-04-09T00:04:50.700Z,0.00
2023-04-09T00:05:55.686Z,0.00
2023-04-09T00:06:50.665Z,0.00
2023-04-09T00:07:50.646Z,0.00
2023-04-09T00:08:50.925Z,0.00
2023-04-09T00:09:50.631Z,0.00
2023-04-09T00:10:50.606Z,0.00
2023-04-09T00:11:50.626Z,0.00
2023-04-09T00:12:50.586Z,0.00
2023-04-09T00:13:50.574Z,0.00
2023-04-09T00:14:50.567Z,0.00
2023-04-09T00:15:50.701Z,0.00
2023-04-09T00:16:55.582Z,0.00
2023-04-09T00:17:50.630Z,0.00
2023-04-09T00:18:50.893Z,0.00
2023-04-09T00:19:50.543Z,0.00
2023-04-09T00:20:50.498Z,0.00
2023-04-09T00:21:50.505Z,0.00
2023-04-09T00:22:50.470Z,0.00
2023-04-09T00:23:50.461Z,0.00
2023-04-09T00:24:50.448Z,0.00
2023-04-09T00:25:50.439Z,0.00
2023-04-09T00:26:50.442Z,0.00
2023-04-09T00:27:55.448Z,0.00
2023-04-09T00:28:50.607Z,0.00
2023-04-09T00:29:50.396Z,0.00
2023-04-09T00:30:50.386Z,0.00
2023-04-09T00:31:50.425Z,0.00
2023-04-09T00:32:50.381Z,0.00
2023-04-09T00:33:50.354Z,0.00
2023-04-09T00:34:50.334Z,0.00
2023-04-09T00:35:50.374Z,0.00
2023-04-09T00:36:50.351Z,0.00
2023-04-09T00:37:50.305Z,0.00
2023-04-09T00:38:55.312Z,0.00
2023-04-09T00:39:50.288Z,0.00
2023-04-09T00:40:50.269Z,0.00
2023-04-09T00:41:50.274Z,0.00
2023-04-09T00:42:50.268Z,0.00
2023-04-09T00:43:50.273Z,0.00
2023-04-09T00:44:50.237Z,0.00
2023-04-09T00:45:50.239Z,0.00
2023-04-09T00:46:50.215Z,0.00
2023-04-09T00:47:50.226Z,0.00
2023-04-09T00:48:50.503Z,0.00
2023-04-09T00:49:55.206Z,0.00
2023-04-09T00:50:50.169Z,0.00
2023-04-09T00:51:50.161Z,0.00
2023-04-09T00:52:50.135Z,0.00
2023-04-09T00:53:50.133Z,0.00
2023-04-09T00:54:50.108Z,0.00
2023-04-09T00:55:50.104Z,0.00
2023-04-09T00:56:50.099Z,0.00
2023-04-09T00:57:50.084Z,0.00
2023-04-09T00:58:50.316Z,0.00
2023-04-09T00:59:50.071Z,0.00
2023-04-09T01:00:55.087Z,0.00
2023-04-09T01:01:50.043Z,0.00
2023-04-09T01:02:50.193Z,0.00
2023-04-09T01:03:50.123Z,0.00
2023-04-09T01:04:49.999Z,0.00
2023-04-09T01:05:49.984Z,0.00
2023-04-09T01:06:49.979Z,0.00
2023-04-09T01:07:49.969Z,0.00
2023-04-09T01:08:50.333Z,0.00
2023-04-09T01:09:49.948Z,0.00
2023-04-09T01:10:49.936Z,0.00
2023-04-09T01:11:54.946Z,0.00
2023-04-09T01:12:49.901Z,0.00
2023-04-09T01:13:49.893Z,0.00
2023-04-09T01:14:49.907Z,0.00
2023-04-09T01:15:49.888Z,0.00
2023-04-09T01:16:49.920Z,0.00
2023-04-09T01:17:49.887Z,0.00
2023-04-09T01:18:50.245Z,0.00
2023-04-09T01:19:49.847Z,0.00
2023-04-09T01:20:49.813Z,0.00
2023-04-09T01:21:49.805Z,0.00
2023-04-09T01:22:54.820Z,0.00
2023-04-09T01:23:49.775Z,0.00
2023-04-09T01:24:49.764Z,0.00
2023-04-09T01:25:49.754Z,0.00
2023-04-09T01:26:49.765Z,0.00
2023-04-09T01:27:49.769Z,0.00
2023-04-09T01:28:49.949Z,0.00
2023-04-09T01:29:49.705Z,0.00
2023-04-09T01:30:49.712Z,0.00
2023-04-09T01:31:49.690Z,0.00
2023-04-09T01:32:49.745Z,0.00
2023-04-09T01:33:54.701Z,0.00
2023-04-09T01:34:49.650Z,0.00
2023-04-09T01:35:49.671Z,0.00
2023-04-09T01:36:49.633Z,0.00
2023-04-09T01:37:49.627Z,0.00
2023-04-09T01:38:49.760Z,0.00
2023-04-09T01:39:49.602Z,0.00
2023-04-09T01:40:49.582Z,0.00
2023-04-09T01:41:49.585Z,0.00
2023-04-09T01:42:49.580Z,0.00
2023-04-09T01:43:49.553Z,0.00
2023-04-09T01:44:54.560Z,0.00
2023-04-09T01:45:49.578Z,0.00
2023-04-09T01:46:49.517Z,0.00
2023-04-09T01:47:49.584Z,0.00
2023-04-09T01:48:49.675Z,0.00
2023-04-09T01:49:49.486Z,0.00
2023-04-09T01:50:49.486Z,0.00
2023-04-09T01:51:49.491Z,0.00
2023-04-09T01:52:49.456Z,0.00
2023-04-09T01:53:49.459Z,0.00
2023-04-09T01:54:49.423Z,0.00
2023-04-09T01:55:54.436Z,0.00
2023-04-09T01:56:49.403Z,0.00
2023-04-09T01:57:49.447Z,0.00
2023-04-09T01:58:49.474Z,0.00
2023-04-09T01:59:49.377Z,0.00
2023-04-09T02:00:49.378Z,0.00
2023-04-09T02:01:49.648Z,0.00
2023-04-09T02:02:49.441Z,0.00
2023-04-09T02:03:49.471Z,0.00
2023-04-09T02:04:49.335Z,0.00
2023-04-09T02:05:49.301Z,0.00
2023-04-09T02:06:54.330Z,0.00
2023-04-09T02:07:49.281Z,0.00
2023-04-09T02:08:49.368Z,0.00
2023-04-09T02:09:49.260Z,0.00
2023-04-09T02:10:49.242Z,0.00
2023-04-09T02:11:49.233Z,0.00
2023-04-09T02:12:49.225Z,0.00
2023-04-09T02:13:49.233Z,0.00
2023-04-09T02:14:49.212Z,0.00
2023-04-09T02:15:49.264Z,0.00
2023-04-09T02:16:49.179Z,0.00
2023-04-09T02:17:54.281Z,0.00
2023-04-09T02:18:49.186Z,0.00
2023-04-09T02:19:49.143Z,0.00
2023-04-09T02:20:49.129Z,0.00
2023-04-09T02:21:49.137Z,0.00
2023-04-09T02:22:49.127Z,0.00
2023-04-09T02:23:49.122Z,0.00
2023-04-09T02:24:49.131Z,0.00
2023-04-09T02:25:49.076Z,0.00
2023-04-09T02:26:49.069Z,0.00
2023-04-09T02:27:49.061Z,0.00
2023-04-09T02:28:54.437Z,0.00
2023-04-09T02:29:49.034Z,0.00
2023-04-09T02:30:49.028Z,0.00
2023-04-09T02:31:49.013Z,0.00
2023-04-09T02:32:49.023Z,0.00
2023-04-09T02:33:48.998Z,0.00
2023-04-09T02:34:48.973Z,0.00
2023-04-09T02:35:48.985Z,0.00
2023-04-09T02:36:48.962Z,0.00
2023-04-09T02:37:48.936Z,0.00
2023-04-09T02:38:48.997Z,0.00
2023-04-09T02:39:53.951Z,0.00
2023-04-09T02:40:48.918Z,0.00
2023-04-09T02:41:48.917Z,0.00
2023-04-09T02:42:48.891Z,0.00
2023-04-09T02:43:48.894Z,0.00
2023-04-09T02:44:48.877Z,0.00
2023-04-09T02:45:48.871Z,0.00
2023-04-09T02:46:48.966Z,0.00
2023-04-09T02:47:48.900Z,0.00
2023-04-09T02:48:48.858Z,0.00
2023-04-09T02:49:48.807Z,0.00
2023-04-09T02:50:53.828Z,0.00
2023-04-09T02:51:48.775Z,0.00
2023-04-09T02:52:48.774Z,0.00
2023-04-09T02:53:48.761Z,0.00
2023-04-09T02:54:48.778Z,0.00
2023-04-09T02:55:48.734Z,0.00
2023-04-09T02:56:48.746Z,0.00
2023-04-09T02:57:48.716Z,0.00
2023-04-09T02:58:48.707Z,0.00
2023-04-09T02:59:48.697Z,0.00
2023-04-09T03:00:48.677Z,0.00
2023-04-09T03:01:53.709Z,0.00
2023-04-09T03:02:48.725Z,0.00
2023-04-09T03:03:48.775Z,0.00
2023-04-09T03:04:48.651Z,0.00
2023-04-09T03:05:48.628Z,0.00
2023-04-09T03:06:48.611Z,0.00
2023-04-09T03:07:48.598Z,0.00
2023-04-09T03:08:48.638Z,0.00
2023-04-09T03:09:48.582Z,0.00
2023-04-09T03:10:48.587Z,0.00
2023-04-09T03:11:48.554Z,0.00
2023-04-09T03:12:53.568Z,0.00
2023-04-09T03:13:48.528Z,0.00
2023-04-09T03:14:48.529Z,0.00
2023-04-09T03:15:48.556Z,0.00
2023-04-09T03:16:48.500Z,0.00
2023-04-09T03:17:48.521Z,0.00
2023-04-09T03:18:48.472Z,0.00
2023-04-09T03:19:48.479Z,0.00
2023-04-09T03:20:48.458Z,0.00
2023-04-09T03:21:48.442Z,0.00
2023-04-09T03:22:48.439Z,0.00
2023-04-09T03:23:53.437Z,0.00
2023-04-09T03:24:48.415Z,0.00
2023-04-09T03:25:48.393Z,0.00
2023-04-09T03:26:48.413Z,0.00
2023-04-09T03:27:48.398Z,0.00
2023-04-09T03:28:48.382Z,0.00
2023-04-09T03:29:48.362Z,0.00
2023-04-09T03:30:48.341Z,0.00
2023-04-09T03:31:48.325Z,0.00
2023-04-09T03:32:48.385Z,0.00
2023-04-09T03:33:48.309Z,0.00
2023-04-09T03:34:53.334Z,0.00
2023-04-09T03:35:48.351Z,0.00
2023-04-09T03:36:48.279Z,0.00
2023-04-09T03:37:48.263Z,0.00
2023-04-09T03:38:48.262Z,0.00
2023-04-09T03:39:48.255Z,0.00
2023-04-09T03:40:48.234Z,0.00
2023-04-09T03:41:48.215Z,0.00
2023-04-09T03:42:48.246Z,0.00
2023-04-09T03:43:48.193Z,0.00
2023-04-09T03:44:48.202Z,0.00
2023-04-09T03:45:53.204Z,0.00
2023-04-09T03:46:48.213Z,0.00
2023-04-09T03:47:48.152Z,0.00
2023-04-09T03:48:48.132Z,0.00
2023-04-09T03:49:48.138Z,0.00
2023-04-09T03:50:48.114Z,0.00
2023-04-09T03:51:48.106Z,0.00
2023-04-09T03:52:48.104Z,0.00
2023-04-09T03:53:48.081Z,0.00
2023-04-09T03:54:48.078Z,0.00
2023-04-09T03:55:48.060Z,0.00
2023-04-09T03:56:53.063Z,0.00
2023-04-09T03:57:48.037Z,0.00
2023-04-09T03:58:48.052Z,0.00
2023-04-09T03:59:48.024Z,0.00
2023-04-09T04:00:48.014Z,0.00
2023-04-09T04:01:48.067Z,0.00
2023-04-09T04:02:48.062Z,0.00
2023-04-09T04:03:48.306Z,0.00
2023-04-09T04:04:48.133Z,0.00
2023-04-09T04:05:47.939Z,0.00
2023-04-09T04:06:47.924Z,0.00
2023-04-09T04:07:52.939Z,0.00
2023-04-09T04:08:47.901Z,0.00
2023-04-09T04:09:47.902Z,0.00
2023-04-09T04:10:47.905Z,0.00
2023-04-09T04:11:47.889Z,0.00
2023-04-09T04:12:47.939Z,0.00
2023-04-09T04:13:47.857Z,0.00
2023-04-09T04:14:47.862Z,0.00
2023-04-09T04:15:47.844Z,0.00
2023-04-09T04:16:47.826Z,0.00
2023-04-09T04:17:47.828Z,0.00
2023-04-09T04:18:53.044Z,0.00
2023-04-09T04:19:47.781Z,0.00
2023-04-09T04:20:47.786Z,0.00
2023-04-09T04:21:47.760Z,4.00
2023-04-09T04:22:47.757Z,0.00
2023-04-09T04:23:47.762Z,0.00
2023-04-09T04:24:47.725Z,4.00
2023-04-09T04:25:47.721Z,4.00
2023-04-09T04:26:47.700Z,4.00
2023-04-09T04:27:47.699Z,4.00
2023-04-09T04:28:47.708Z,8.00
2023-04-09T04:29:52.717Z,8.00
2023-04-09T04:30:47.654Z,8.00
2023-04-09T04:31:47.669Z,8.00
2023-04-09T04:32:47.669Z,12.00
2023-04-09T04:33:47.624Z,12.00
2023-04-09T04:34:47.618Z,16.00
2023-04-09T04:35:47.619Z,16.00
2023-04-09T04:36:47.583Z,20.00
2023-04-09T04:37:47.575Z,24.00
2023-04-09T04:38:47.563Z,28.00
2023-04-09T04:39:47.552Z,28.00
2023-04-09T04:40:52.587Z,36.00
2023-04-09T04:41:47.530Z,36.00
2023-04-09T04:42:47.543Z,48.00
2023-04-09T04:43:47.529Z,52.00
2023-04-09T04:44:47.497Z,56.00
2023-04-09T04:45:47.536Z,64.00
2023-04-09T04:46:47.513Z,72.00
2023-04-09T04:47:47.489Z,84.00
2023-04-09T04:48:47.447Z,96.00
2023-04-09T04:49:47.444Z,108.00
2023-04-09T04:50:47.436Z,120.00
2023-04-09T04:51:52.440Z,132.00
2023-04-09T04:52:47.447Z,148.00
2023-04-09T04:53:47.398Z,156.00
2023-04-09T04:54:47.388Z,168.00
2023-04-09T04:55:47.414Z,180.00
2023-04-09T04:56:47.368Z,192.00
2023-04-09T04:57:47.350Z,208.00
2023-04-09T04:58:47.347Z,220.00
2023-04-09T04:59:47.328Z,232.00
2023-04-09T05:00:47.393Z,248.00
2023-04-09T05:01:47.360Z,264.00
2023-04-09T05:02:52.405Z,280.00
2023-04-09T05:03:47.438Z,300.00
2023-04-09T05:04:47.295Z,320.00
2023-04-09T05:05:47.265Z,340.00
2023-04-09T05:06:47.247Z,356.00
2023-04-09T05:07:47.241Z,380.00
2023-04-09T05:08:47.233Z,400.00
2023-04-09T05:09:47.222Z,424.00
2023-04-09T05:10:47.225Z,448.00
2023-04-09T05:11:47.195Z,476.00
2023-04-09T05:12:47.176Z,504.00
2023-04-09T05:13:52.201Z,532.00
2023-04-09T05:14:47.166Z,568.00
2023-04-09T05:15:47.171Z,604.00
2023-04-09T05:16:47.171Z,656.00
2023-04-09T05:17:47.179Z,700.00
2023-04-09T05:18:47.116Z,748.00
2023-04-09T05:19:47.104Z,804.00
2023-04-09T05:20:47.123Z,872.00
2023-04-09T05:21:47.506Z,928.00
2023-04-09T05:22:47.071Z,976.00
2023-04-09T05:23:47.059Z,1036.00
2023-04-09T05:24:52.076Z,1084.00
2023-04-09T05:25:47.049Z,1144.00
2023-04-09T05:26:47.019Z,1176.00
2023-04-09T05:27:47.015Z,1220.00
2023-04-09T05:28:47.000Z,1272.00
2023-04-09T05:29:46.989Z,1316.00
2023-04-09T05:30:47.005Z,1360.00
2023-04-09T05:31:46.967Z,1416.00
2023-04-09T05:32:46.967Z,1464.00
2023-04-09T05:33:46.962Z,1472.00
2023-04-09T05:34:46.935Z,1456.00
2023-04-09T05:35:51.975Z,1352.00
2023-04-09T05:36:46.908Z,1260.00
2023-04-09T05:37:46.911Z,1232.00
2023-04-09T05:38:46.903Z,1240.00
2023-04-09T05:39:46.883Z,1236.00
2023-04-09T05:40:46.877Z,1236.00
2023-04-09T05:41:46.861Z,1252.00
2023-04-09T05:42:46.839Z,1452.00
2023-04-09T05:43:46.829Z,1920.00
2023-04-09T05:44:46.824Z,1476.00
2023-04-09T05:45:46.831Z,1440.00
2023-04-09T05:46:51.827Z,1756.00
2023-04-09T05:47:46.794Z,2156.00
2023-04-09T05:48:46.778Z,1720.00
2023-04-09T05:49:46.782Z,2060.00
2023-04-09T05:50:54.642Z,1848.00
2023-04-09T05:51:46.752Z,1660.00
2023-04-09T05:52:46.729Z,2084.00
2023-04-09T05:53:46.719Z,1660.00
2023-04-09T05:54:46.706Z,1540.00
2023-04-09T05:55:46.709Z,1572.00
2023-04-09T05:56:46.700Z,1876.00
2023-04-09T05:57:51.696Z,1660.00
2023-04-09T05:58:46.666Z,1812.00
2023-04-09T05:59:46.656Z,1704.00
2023-04-09T06:00:46.638Z,1756.00
2023-04-09T06:01:46.678Z,1840.00
2023-04-09T06:02:46.723Z,1896.00
2023-04-09T06:03:46.879Z,1972.00
2023-04-09T06:04:46.686Z,2104.00
2023-04-09T06:05:46.602Z,2292.00
2023-04-09T06:06:46.581Z,2488.00
2023-04-09T06:07:46.560Z,2652.00
2023-04-09T06:08:51.588Z,2768.00
2023-04-09T06:09:46.537Z,2840.00
2023-04-09T06:10:46.550Z,2812.00
2023-04-09T06:11:46.529Z,2708.00
2023-04-09T06:12:46.513Z,2668.00
2023-04-09T06:13:46.510Z,2648.00
2023-04-09T06:14:46.495Z,2700.00
2023-04-09T06:15:46.493Z,2796.00
2023-04-09T06:16:46.467Z,2840.00
2023-04-09T06:17:46.523Z,2812.00
2023-04-09T06:18:46.439Z,2860.00
2023-04-09T06:19:51.450Z,2880.00
2023-04-09T06:20:46.419Z,2896.00
2023-04-09T06:21:46.435Z,2920.00
2023-04-09T06:22:46.401Z,3008.00
2023-04-09T06:23:46.385Z,3040.00
2023-04-09T06:24:46.367Z,3008.00
2023-04-09T06:25:46.361Z,3036.00
2023-04-09T06:26:46.370Z,3064.00
2023-04-09T06:27:46.332Z,3068.00
2023-04-09T06:28:46.321Z,3100.00
2023-04-09T06:29:46.334Z,3292.00
2023-04-09T06:30:51.404Z,3432.00
2023-04-09T06:31:46.296Z,3356.00
2023-04-09T06:32:54.355Z,3380.00
2023-04-09T06:33:46.267Z,3388.00
2023-04-09T06:34:46.252Z,3456.00
2023-04-09T06:35:46.268Z,3424.00
2023-04-09T06:36:46.236Z,3436.00
2023-04-09T06:37:46.246Z,3616.00
2023-04-09T06:38:46.219Z,3852.00
2023-04-09T06:39:58.230Z,4024.00
2023-04-09T06:40:46.184Z,4224.00
2023-04-09T06:41:51.211Z,4336.00
2023-04-09T06:42:46.158Z,4416.00
2023-04-09T06:43:46.150Z,4504.00
2023-04-09T06:44:46.144Z,4532.00
2023-04-09T06:45:46.127Z,4596.00
2023-04-09T06:46:46.122Z,4728.00
2023-04-09T06:47:46.140Z,5136.00
2023-04-09T06:48:46.089Z,5724.00
2023-04-09T06:49:46.089Z,5980.00
2023-04-09T06:50:46.089Z,8280.00
2023-04-09T06:51:46.064Z,9640.00
2023-04-09T06:52:51.097Z,6584.00
2023-04-09T06:53:46.084Z,6308.00
2023-04-09T06:54:46.023Z,6460.00
2023-04-09T06:55:46.063Z,7364.00
2023-04-09T06:56:46.008Z,8276.00
2023-04-09T06:57:46.006Z,7592.00
2023-04-09T06:58:45.982Z,7544.00
2023-04-09T06:59:45.973Z,7168.00
2023-04-09T07:00:45.956Z,7036.00
2023-04-09T07:01:46.027Z,7312.00
2023-04-09T07:02:46.156Z,7456.00
2023-04-09T07:03:51.168Z,6984.00
2023-04-09T07:04:45.988Z,6956.00
2023-04-09T07:05:45.901Z,6712.00
2023-04-09T07:06:45.886Z,6532.00
2023-04-09T07:07:45.889Z,7388.00
2023-04-09T07:08:45.886Z,6988.00
2023-04-09T07:09:45.857Z,7252.00
2023-04-09T07:10:45.843Z,7476.00
2023-04-09T07:11:45.834Z,7816.00
2023-04-09T07:12:45.837Z,7864.00
2023-04-09T07:13:45.819Z,7864.00
2023-04-09T07:14:50.825Z,7620.00
2023-04-09T07:15:45.842Z,7540.00
2023-04-09T07:16:45.783Z,7368.00
2023-04-09T07:17:45.796Z,9032.00
2023-04-09T07:18:45.755Z,7384.00
2023-04-09T07:19:45.742Z,7052.00
2023-04-09T07:20:45.758Z,6880.00
2023-04-09T07:21:45.717Z,6588.00
2023-04-09T07:22:45.714Z,6520.00
2023-04-09T07:23:45.695Z,6320.00
2023-04-09T07:24:45.709Z,6564.00
2023-04-09T07:25:50.703Z,6776.00
2023-04-09T07:26:45.667Z,7048.00
2023-04-09T07:27:45.663Z,7536.00
2023-04-09T07:28:45.636Z,11420.00
2023-04-09T07:29:45.636Z,8760.00
2023-04-09T07:30:45.611Z,9792.00
2023-04-09T07:31:45.624Z,11284.00
2023-04-09T07:32:45.689Z,13496.00
2023-04-09T07:33:45.581Z,14560.00
2023-04-09T07:34:45.565Z,14288.00
2023-04-09T07:35:45.578Z,13004.00
2023-04-09T07:36:50.565Z,11536.00
2023-04-09T07:37:45.541Z,9948.00
2023-04-09T07:38:45.526Z,8728.00
2023-04-09T07:39:45.516Z,10320.00
2023-04-09T07:40:45.527Z,9812.00
2023-04-09T07:41:45.501Z,9116.00
2023-04-09T07:42:45.492Z,7676.00
2023-04-09T07:43:45.465Z,7336.00
2023-04-09T07:44:45.459Z,6892.00
2023-04-09T07:45:45.447Z,5904.00
2023-04-09T07:46:45.478Z,6220.00
2023-04-09T07:47:50.568Z,6808.00
2023-04-09T07:48:47.183Z,7300.00
2023-04-09T07:49:45.414Z,8088.00
2023-04-09T07:50:45.405Z,8264.00
2023-04-09T07:51:45.381Z,8832.00
2023-04-09T07:52:45.363Z,9772.00
2023-04-09T07:53:45.364Z,9732.00
2023-04-09T07:54:45.350Z,10480.00
2023-04-09T07:55:45.334Z,10708.00
2023-04-09T07:56:45.341Z,8612.00
2023-04-09T07:57:45.320Z,6496.00
2023-04-09T07:58:50.575Z,6024.00
2023-04-09T07:59:45.323Z,6212.00
2023-04-09T08:00:45.312Z,6716.00
2023-04-09T08:01:45.318Z,7432.00
2023-04-09T08:02:45.493Z,8412.00
2023-04-09T08:03:45.447Z,9156.00
2023-04-09T08:04:45.397Z,9148.00
2023-04-09T08:05:45.224Z,9540.00
2023-04-09T08:06:45.229Z,10480.00
2023-04-09T08:07:45.206Z,9948.00
2023-04-09T08:08:45.195Z,10940.00
2023-04-09T08:09:50.217Z,10416.00
2023-04-09T08:10:45.167Z,11316.00
2023-04-09T08:11:45.155Z,10968.00
2023-04-09T08:12:45.165Z,11212.00
2023-04-09T08:13:45.138Z,11576.00
2023-04-09T08:14:45.119Z,14756.00
2023-04-09T08:15:45.119Z,17056.00
2023-04-09T08:16:45.167Z,14432.00
2023-04-09T08:17:45.090Z,14576.00
2023-04-09T08:18:45.088Z,16640.00
2023-04-09T08:19:45.069Z,14976.00
2023-04-09T08:20:50.073Z,15584.00
2023-04-09T08:21:45.052Z,14128.00
2023-04-09T08:22:45.026Z,12164.00
2023-04-09T08:23:45.030Z,12248.00
2023-04-09T08:24:45.004Z,13832.00
2023-04-09T08:25:44.992Z,14528.00
2023-04-09T08:26:44.984Z,14944.00
2023-04-09T08:27:44.976Z,14324.00
2023-04-09T08:28:44.993Z,14508.00
2023-04-09T08:29:44.960Z,13912.00
2023-04-09T08:30:44.964Z,13000.00
2023-04-09T08:31:49.995Z,13084.00
2023-04-09T08:32:44.944Z,10716.00
2023-04-09T08:33:44.919Z,8912.00
2023-04-09T08:34:44.893Z,7948.00
2023-04-09T08:35:44.883Z,8136.00
2023-04-09T08:36:44.876Z,9224.00
2023-04-09T08:37:44.857Z,11052.00
2023-04-09T08:38:44.849Z,12504.00
2023-04-09T08:39:44.853Z,12528.00
2023-04-09T08:40:44.821Z,11288.00
2023-04-09T08:41:44.813Z,9656.00
2023-04-09T08:42:49.825Z,9552.00
2023-04-09T08:43:57.183Z,9652.00
2023-04-09T08:44:44.815Z,9748.00
2023-04-09T08:45:44.783Z,9632.00
2023-04-09T08:46:44.776Z,10348.00
2023-04-09T08:47:44.882Z,11352.00
2023-04-09T08:48:44.751Z,11836.00
2023-04-09T08:49:44.732Z,13288.00
2023-04-09T08:50:44.713Z,12764.00
2023-04-09T08:51:44.698Z,10824.00
2023-04-09T08:52:44.690Z,10320.00
2023-04-09T08:53:49.739Z,10508.00
2023-04-09T08:54:44.700Z,11064.00
2023-04-09T08:55:44.653Z,12032.00
2023-04-09T08:56:44.643Z,13840.00
2023-04-09T08:57:44.634Z,14388.00
2023-04-09T08:58:44.623Z,13388.00
2023-04-09T08:59:44.630Z,13024.00
2023-04-09T09:00:44.620Z,9616.00
2023-04-09T09:01:44.690Z,12388.00
2023-04-09T09:02:44.687Z,10104.00
2023-04-09T09:03:44.667Z,11668.00
2023-04-09T09:04:49.582Z,11964.00
2023-04-09T09:05:44.550Z,17024.00
2023-04-09T09:06:44.530Z,14920.00
2023-04-09T09:07:44.517Z,14384.00
2023-04-09T09:08:44.509Z,13984.00
2023-04-09T09:09:44.514Z,13160.00
2023-04-09T09:10:44.488Z,13200.00
2023-04-09T09:11:44.474Z,13952.00
2023-04-09T09:12:44.461Z,15092.00
2023-04-09T09:13:44.447Z,15556.00
2023-04-09T09:14:44.436Z,15320.00
2023-04-09T09:15:49.480Z,16864.00
2023-04-09T09:16:44.582Z,20352.00
2023-04-09T09:17:44.467Z,21952.00
2023-04-09T09:18:44.423Z,20256.00
2023-04-09T09:19:44.382Z,20384.00
2023-04-09T09:20:44.379Z,12712.00
2023-04-09T09:21:44.356Z,18656.00
2023-04-09T09:22:44.346Z,11136.00
2023-04-09T09:23:44.417Z,10444.00
2023-04-09T09:24:44.327Z,13760.00
2023-04-09T09:25:44.318Z,36352.00
2023-04-09T09:26:49.327Z,33280.00
2023-04-09T09:27:44.284Z,6652.00
2023-04-09T09:28:44.279Z,6076.00
2023-04-09T09:29:44.266Z,6436.00
2023-04-09T09:30:44.318Z,7664.00
2023-04-09T09:31:44.327Z,46080.00
2023-04-09T09:32:44.316Z,12540.00
2023-04-09T09:33:44.287Z,24192.00
2023-04-09T09:34:44.261Z,20544.00
2023-04-09T09:35:44.284Z,18624.00
2023-04-09T09:36:44.296Z,31360.00
2023-04-09T09:37:49.230Z,42048.00
2023-04-09T09:38:44.177Z,59520.00
2023-04-09T09:39:44.156Z,61088.00
2023-04-09T09:40:44.158Z,69696.00
2023-04-09T09:41:44.159Z,66304.00
2023-04-09T09:42:44.124Z,58016.00
2023-04-09T09:43:44.117Z,53120.00
2023-04-09T09:44:44.106Z,48864.00
2023-04-09T09:45:44.312Z,45056.00
2023-04-09T09:46:44.099Z,47968.00
2023-04-09T09:47:44.117Z,45664.00
2023-04-09T09:48:49.093Z,32608.00
2023-04-09T09:49:44.060Z,24800.00
2023-04-09T09:50:44.044Z,38880.00
2023-04-09T09:51:44.026Z,23872.00
2023-04-09T09:52:44.011Z,32896.00
2023-04-09T09:53:44.004Z,26112.00
2023-04-09T09:54:44.034Z,31328.00
2023-04-09T09:55:43.989Z,20928.00
2023-04-09T09:56:43.971Z,10872.00
2023-04-09T09:57:43.958Z,9532.00
2023-04-09T09:58:43.952Z,10320.00
2023-04-09T09:59:48.955Z,11652.00
2023-04-09T10:00:43.950Z,11332.00
2023-04-09T10:01:43.972Z,11664.00
2023-04-09T10:02:43.970Z,13320.00
2023-04-09T10:03:43.914Z,13816.00
2023-04-09T10:04:43.897Z,14376.00
2023-04-09T10:05:43.861Z,16060.00
2023-04-09T10:06:43.900Z,13280.00
2023-04-09T10:07:43.845Z,13116.00
2023-04-09T10:08:43.827Z,14112.00
2023-04-09T10:09:43.823Z,13344.00
2023-04-09T10:10:48.849Z,12380.00
2023-04-09T10:11:43.805Z,12592.00
2023-04-09T10:12:43.804Z,13288.00
2023-04-09T10:13:43.772Z,14152.00
2023-04-09T10:14:43.779Z,13556.00
2023-04-09T10:15:43.808Z,13980.00
2023-04-09T10:16:43.751Z,14572.00
2023-04-09T10:17:43.752Z,17664.00
2023-04-09T10:18:43.758Z,16216.00
2023-04-09T10:19:43.725Z,14872.00
2023-04-09T10:20:43.696Z,14328.00
2023-04-09T10:21:48.711Z,13628.00
2023-04-09T10:22:43.702Z,12088.00
2023-04-09T10:23:43.658Z,10572.00
2023-04-09T10:24:43.672Z,9416.00
2023-04-09T10:25:43.633Z,8832.00
2023-04-09T10:26:43.632Z,8368.00
2023-04-09T10:27:43.619Z,7960.00
2023-04-09T10:28:43.601Z,8000.00
2023-04-09T10:29:43.591Z,8124.00
2023-04-09T10:30:43.611Z,8220.00
2023-04-09T10:31:43.603Z,8640.00
2023-04-09T10:32:48.618Z,9060.00
2023-04-09T10:33:43.556Z,10284.00
2023-04-09T10:34:43.539Z,11240.00
2023-04-09T10:35:43.583Z,10824.00
2023-04-09T10:36:43.524Z,9940.00
2023-04-09T10:37:43.560Z,9548.00
2023-04-09T10:38:43.486Z,9772.00
2023-04-09T10:39:43.476Z,9712.00
2023-04-09T10:40:43.465Z,9644.00
2023-04-09T10:41:43.468Z,9860.00
2023-04-09T10:42:43.452Z,10048.00
2023-04-09T10:43:48.495Z,10404.00
2023-04-09T10:44:43.418Z,10660.00
2023-04-09T10:45:43.411Z,11532.00
2023-04-09T10:46:43.487Z,12340.00
2023-04-09T10:47:43.523Z,13252.00
2023-04-09T10:48:43.378Z,34720.00
2023-04-09T10:49:43.362Z,67104.00
2023-04-09T10:50:43.401Z,74848.00
2023-04-09T10:51:43.370Z,14844.00
2023-04-09T10:52:43.332Z,11792.00
2023-04-09T10:53:43.319Z,11232.00
2023-04-09T10:54:48.343Z,10872.00
2023-04-09T10:55:43.293Z,10480.00
2023-04-09T10:56:43.316Z,10192.00
2023-04-09T10:57:43.278Z,10268.00
2023-04-09T10:58:43.295Z,10728.00
2023-04-09T10:59:43.263Z,11236.00
2023-04-09T11:00:43.241Z,11416.00
2023-04-09T11:01:43.302Z,11112.00
2023-04-09T11:02:43.347Z,10724.00
2023-04-09T11:03:43.245Z,10768.00
2023-04-09T11:04:43.230Z,10960.00
2023-04-09T11:05:48.210Z,11588.00
2023-04-09T11:06:43.175Z,12568.00
2023-04-09T11:07:43.191Z,13156.00
2023-04-09T11:08:43.189Z,14116.00
2023-04-09T11:09:43.140Z,16896.00
2023-04-09T11:10:43.127Z,13396.00
2023-04-09T11:11:43.124Z,12704.00
2023-04-09T11:12:43.129Z,12520.00
2023-04-09T11:13:43.095Z,13736.00
2023-04-09T11:14:43.116Z,13628.00
2023-04-09T11:15:43.089Z,12972.00
2023-04-09T11:16:48.159Z,12240.00
2023-04-09T11:17:43.171Z,10648.00
2023-04-09T11:18:43.036Z,9404.00
2023-04-09T11:19:43.021Z,8924.00
2023-04-09T11:20:43.052Z,8848.00
2023-04-09T11:21:43.511Z,8480.00
2023-04-09T11:22:42.999Z,7772.00
2023-04-09T11:23:42.997Z,7676.00
2023-04-09T11:24:42.976Z,7672.00
2023-04-09T11:25:42.951Z,7988.00
2023-04-09T11:26:42.960Z,8064.00
2023-04-09T11:27:47.971Z,7228.00
2023-04-09T11:28:42.917Z,6756.00
2023-04-09T11:29:42.902Z,6688.00
2023-04-09T11:30:42.904Z,6628.00
2023-04-09T11:31:42.895Z,6660.00
2023-04-09T11:32:42.958Z,7092.00
2023-04-09T11:33:42.866Z,7444.00
2023-04-09T11:34:42.849Z,7216.00
2023-04-09T11:35:42.874Z,6912.00
2023-04-09T11:36:42.828Z,6968.00
2023-04-09T11:37:42.828Z,7260.00
2023-04-09T11:38:47.847Z,7300.00
2023-04-09T11:39:42.793Z,7688.00
2023-04-09T11:40:42.785Z,8044.00
2023-04-09T11:41:42.769Z,8172.00
2023-04-09T11:42:42.759Z,8420.00
2023-04-09T11:43:42.762Z,58208.00
2023-04-09T11:44:42.735Z,9940.00
2023-04-09T11:45:42.723Z,8180.00
2023-04-09T11:46:42.732Z,6572.00
2023-04-09T11:47:42.722Z,5948.00
2023-04-09T11:48:42.703Z,5944.00
2023-04-09T11:49:47.711Z,5956.00
2023-04-09T11:50:42.674Z,6048.00
2023-04-09T11:51:42.656Z,6200.00
2023-04-09T11:52:42.673Z,6184.00
2023-04-09T11:53:42.647Z,6368.00
2023-04-09T11:54:42.645Z,6520.00
2023-04-09T11:55:42.614Z,6764.00
2023-04-09T11:56:42.609Z,7252.00
2023-04-09T11:57:42.590Z,7720.00
2023-04-09T11:58:42.592Z,8152.00
2023-04-09T11:59:42.565Z,8636.00
2023-04-09T12:00:47.574Z,9240.00
2023-04-09T12:01:42.591Z,9824.00
2023-04-09T12:02:42.708Z,9936.00
2023-04-09T12:03:42.626Z,9308.00
2023-04-09T12:04:42.702Z,8304.00
2023-04-09T12:05:44.929Z,7544.00
2023-04-09T12:06:42.492Z,6980.00
2023-04-09T12:07:51.641Z,6472.00
2023-04-09T12:08:42.486Z,6540.00
2023-04-09T12:09:42.452Z,6796.00
2023-04-09T12:10:42.473Z,7060.00
2023-04-09T12:11:47.460Z,7348.00
2023-04-09T12:12:42.423Z,7428.00
2023-04-09T12:13:42.417Z,7076.00
2023-04-09T12:14:42.407Z,6588.00
2023-04-09T12:15:42.384Z,6368.00
2023-04-09T12:16:42.455Z,6368.00
2023-04-09T12:17:42.393Z,6572.00
2023-04-09T12:18:42.435Z,6880.00
2023-04-09T12:19:42.343Z,7376.00
2023-04-09T12:20:42.352Z,7952.00
2023-04-09T12:21:42.319Z,8556.00
2023-04-09T12:22:47.329Z,18656.00
2023-04-09T12:23:42.310Z,11464.00
2023-04-09T12:24:42.285Z,9652.00
2023-04-09T12:25:42.279Z,10528.00
2023-04-09T12:26:42.288Z,11268.00
2023-04-09T12:27:42.259Z,12188.00